METAR Data
IDs: Format: Raw Decoded Include TAF

Data at: 1444 UTC 25 Jan 2020

METAR for:KGGI (Grinnell Rgnl, IA, US)
Text:KGGI 251435Z AUTO 29012KT 7SM OVC009 M02/M03 A3000 RMK AO2 T10171031
Temperature: -1.7°C ( 29°F)
Dewpoint: -3.1°C ( 26°F) [RH = 90%]
Pressure (altimeter):30.00 inches Hg (1016.0 mb)
Winds:from the WNW (290 degrees) at 14 MPH (12 knots; 6.2 m/s)
Visibility: 7 sm ( 11 km)
Ceiling:900 feet AGL
Clouds: overcast cloud deck at 900 feet AGL
QC Flag:automated observation with no human augmentation